Aeroporto :
LOGIN :

Iscrizione | Disclaimer

   EN    FR    IT 

 










Sommario :    VFR   VFR Marginale   IFR   IFR Intensivo   IFR Molto Intensivo
Visibilità : 
Base nubi : 
>= 8 km
>= 3000ft
5 / 8 km
1000 / 3000 ft
1500m / 5 km
500 / 1000 ft
800 / 1500m
200 / 500 ft
< 800m
< 200 ft
Simboli :   Temporali  Nebbia  Neve Forte  Precipitazioni Forti  Vento > 20 kt
SIGMETs :   Varie  Temporali  Ghiacco  Turbolenza  Onda orograficha  Ceneri Vulcaniche






- Altitudine del aeroporto : 1367 ft
- Codice IATA : FDH


EDNY - Friedrichshafen

ULTIMO METAR :
  • 072150Z AUTO 21005KT 9999 // OVC051/// 08/04 Q1020

METARs OBSOLETI :
  • 072120Z AUTO 23005KT 9999 // OVC050/// 08/05 Q1020
  • 072050Z AUTO 25008KT 9999 // OVC048/// 08/05 Q1021
  • 072020Z AUTO 23007KT 9999 // OVC047/// 08/04 Q1021
  • 071950Z AUTO 25007KT 9999 // FEW029/// BKN039/// OVC050/// 08/04 Q1021
  • 071920Z AUTO 21004KT 9999 // BKN030/// BKN034/// OVC039/// 08/05 Q1021

TAF TAF EDNY
Valido dal 07 a 18 ore il 08 a 18 ore UTC


071700Z 0718/0818 25008KT 9999 BKN050



MetMap, La meteo Aeronautica in un colpo d'occhio ! - Copyright ORBIFLY Dicembre 2007 - Disclaimer

ORBIFLY MET'MAP TEAM :

Programmazione e sviluppo : Alexandra Zaïnal
Concezione : Baudouin d'Aumeries
Aiuto per la programmazione : Marc-Olivier Méhu
Supporto tecnico e logistico : Manuel Goepfert
Aiuto per la traduzione : Arnaldo La Scala

Contatto : metmap@orbifly.com




FONTI E CREDITI :

   NOAA